Time;durP1;ratioP1;P1;durP2;ratioP2;P2;SDS_P1;SDS_P2;PMS_P1;PMS_P2;Temp;Humidity;BMP_temperature;BMP_pressure;BME280_temperature;BME280_humidity;BME280_pressure;Samples;Min_cycle;Max_cycle;Signal;HPM_P1;HPM_P2
2022/10/13 00:01:48;;;;;;;0.00;0.00;;;;;;;14.06;62.21;98474.47;8416246;28;20234;-85
2022/10/13 00:05:51;;;;;;;0.00;0.00;;;;;;;14.10;61.66;98477.78;8416132;28;20234;-86
2022/10/13 00:09:55;;;;;;;0.00;0.00;;;;;;;14.08;61.67;98477.84;8415868;28;20280;-86
2022/10/13 00:13:59;;;;;;;0.00;0.00;;;;;;;13.97;61.29;98480.97;8414520;28;20261;-85
2022/10/13 00:18:03;;;;;;;0.00;0.00;;;;;;;13.91;61.45;98478.69;8416047;28;20223;-86
2022/10/13 00:22:05;;;;;;;0.00;0.00;;;;;;;13.85;62.17;98476.41;8415673;28;20246;-85
2022/10/13 00:26:12;;;;;;;0.00;0.00;;;;;;;13.89;61.94;98480.53;8415377;28;20413;-85
2022/10/13 00:30:15;;;;;;;0.00;0.00;;;;;;;13.95;61.28;98482.81;8415726;28;20227;-85
2022/10/13 00:34:17;;;;;;;0.10;0.10;;;;;;;13.85;60.85;98485.03;8415526;28;20391;-86
2022/10/13 00:38:23;;;;;;;0.00;0.00;;;;;;;13.84;60.96;98482.50;8415111;28;20231;-86
2022/10/13 00:42:27;;;;;;;0.00;0.00;;;;;;;13.74;61.07;98476.06;8414779;28;20301;-85
2022/10/13 00:46:32;;;;;;;0.03;0.03;;;;;;;13.67;60.57;98485.97;8415833;28;20269;-86
2022/10/13 00:50:38;;;;;;;0.00;0.00;;;;;;;13.71;59.71;98484.88;8415438;28;20542;-85
2022/10/13 00:54:41;;;;;;;0.10;0.10;;;;;;;13.63;59.50;98492.22;8416123;28;20234;-86
2022/10/13 00:58:47;;;;;;;0.00;0.00;;;;;;;13.66;59.82;98487.69;8416762;28;20231;-86
2022/10/13 01:02:51;;;;;;;0.00;0.00;;;;;;;13.65;59.75;98485.16;8417734;28;20238;-86
2022/10/13 01:06:55;;;;;;;0.00;0.00;;;;;;;13.58;60.13;98489.00;8428832;28;20242;-87
2022/10/13 01:11:10;;;;;;;0.03;0.03;;;;;;;13.57;60.81;98488.13;8431640;28;20241;-85
2022/10/13 01:15:19;;;;;;;0.10;0.10;;;;;;;13.52;61.57;98490.13;8431152;28;20230;-85
2022/10/13 01:19:52;;;;;;;0.00;0.00;;;;;;;13.62;61.31;98485.34;8435038;28;20219;-85
2022/10/13 01:24:19;;;;;;;0.00;0.00;;;;;;;13.57;62.07;98488.13;8399246;28;20226;-85
2022/10/13 01:28:33;;;;;;;0.00;0.00;;;;;;;13.64;61.64;98484.34;8419463;28;20230;-86
2022/10/13 01:32:59;;;;;;;0.03;0.03;;;;;;;13.48;61.38;98478.19;8418734;28;20237;-87
2022/10/13 01:37:07;;;;;;;0.10;0.10;;;;;;;13.57;62.02;98466.50;8416943;28;20226;-86
2022/10/13 01:41:15;;;;;;;0.10;0.10;;;;;;;13.51;62.68;98465.03;8414219;28;20277;-86
2022/10/13 01:45:21;;;;;;;0.10;0.10;;;;;;;13.56;62.23;98457.00;8413914;28;20245;-87
2022/10/13 01:49:28;;;;;;;0.00;0.00;;;;;;;13.45;62.79;98457.53;8413278;28;20668;-87
2022/10/13 01:53:31;;;;;;;0.00;0.00;;;;;;;13.48;62.38;98460.81;8412859;28;20265;-86
2022/10/13 01:57:36;;;;;;;0.00;0.00;;;;;;;13.36;63.45;98455.34;8413302;28;20257;-86
2022/10/13 02:01:46;;;;;;;0.00;0.00;;;;;;;13.33;63.50;98447.69;8413331;28;20396;-86
2022/10/13 02:05:58;;;;;;;0.10;0.10;;;;;;;13.47;62.97;98443.50;8412903;28;20231;-84
2022/10/13 02:10:04;;;;;;;0.00;0.00;;;;;;;13.19;64.56;98443.13;8413151;28;20242;-85
2022/10/13 02:14:12;;;;;;;0.10;0.10;;;;;;;13.39;64.29;98442.22;8412631;28;20235;-86
2022/10/13 02:18:17;;;;;;;0.10;0.10;;;;;;;12.80;66.97;98439.72;8412805;28;20237;-85
2022/10/13 02:22:25;;;;;;;0.10;0.10;;;;;;;13.10;66.16;98434.84;8412781;28;20227;-85
2022/10/13 02:26:27;;;;;;;0.07;0.07;;;;;;;13.29;65.24;98437.41;8412152;28;20522;-84
2022/10/13 02:30:32;;;;;;;0.10;0.10;;;;;;;13.34;64.96;98439.81;8412562;28;20241;-85
2022/10/13 02:34:34;;;;;;;0.10;0.10;;;;;;;12.97;66.85;98428.53;8412918;28;20432;-85
2022/10/13 02:38:39;;;;;;;0.00;0.00;;;;;;;13.23;65.74;98429.91;8414904;28;20426;-86
2022/10/13 02:42:42;;;;;;;0.03;0.03;;;;;;;13.38;65.57;98436.16;8418507;28;20231;-86
2022/10/13 02:46:45;;;;;;;0.10;0.10;;;;;;;13.48;65.14;98429.59;8418485;28;20247;-86
2022/10/13 02:50:48;;;;;;;0.00;0.00;;;;;;;13.52;64.79;98421.63;8418289;28;20226;-86
2022/10/13 02:54:52;;;;;;;0.00;0.00;;;;;;;13.52;64.94;98422.50;8418557;28;20231;-86
2022/10/13 02:58:55;;;;;;;0.00;0.00;;;;;;;13.21;66.46;98423.94;8419073;28;20231;-86
2022/10/13 03:02:58;;;;;;;0.00;0.00;;;;;;;13.54;65.21;98415.44;8418871;28;20249;-86
2022/10/13 03:07:01;;;;;;;0.00;0.00;;;;;;;13.61;64.58;98421.19;8417719;28;20222;-86
2022/10/13 03:11:06;;;;;;;0.00;0.00;;;;;;;13.41;65.59;98420.41;8417454;28;20234;-86
2022/10/13 03:15:09;;;;;;;0.00;0.00;;;;;;;13.12;67.74;98421.78;8417306;28;20426;-85
2022/10/13 03:19:12;;;;;;;0.00;0.00;;;;;;;13.26;66.84;98431.53;8417391;28;20222;-86
2022/10/13 03:23:15;;;;;;;0.10;0.10;;;;;;;13.42;65.84;98426.44;8417266;28;20236;-86
2022/10/13 03:27:19;;;;;;;0.10;0.10;;;;;;;13.52;65.39;98424.22;8417041;28;20249;-86
2022/10/13 03:31:22;;;;;;;0.07;0.07;;;;;;;13.52;65.44;98416.41;8416863;28;20239;-85
2022/10/13 03:35:26;;;;;;;0.10;0.10;;;;;;;13.32;66.62;98427.81;8416388;28;20253;-79
2022/10/13 03:39:29;;;;;;;0.00;0.00;;;;;;;13.24;66.33;98428.16;8416582;28;20427;-85
2022/10/13 03:43:33;;;;;;;0.10;0.10;;;;;;;13.11;67.00;98418.31;8416511;28;20237;-85
2022/10/13 03:47:36;;;;;;;0.07;0.07;;;;;;;12.71;68.27;98409.78;8416128;28;20246;-85
2022/10/13 03:51:39;;;;;;;0.10;0.10;;;;;;;13.29;66.29;98415.78;8415843;28;20237;-85
2022/10/13 03:55:42;;;;;;;0.03;0.03;;;;;;;13.27;66.36;98413.25;8415958;28;20234;-87
2022/10/13 03:59:47;;;;;;;0.10;0.10;;;;;;;13.22;66.62;98415.22;8415727;28;20238;-85
2022/10/13 04:03:50;;;;;;;0.10;0.10;;;;;;;13.43;66.00;98413.38;8415907;28;20412;-86
2022/10/13 04:07:53;;;;;;;0.03;0.03;;;;;;;13.51;65.68;98412.97;8415834;28;20446;-86
2022/10/13 04:11:56;;;;;;;0.10;0.10;;;;;;;13.63;65.54;98409.78;8415306;28;20231;-85
2022/10/13 04:16:04;;;;;;;0.00;0.00;;;;;;;13.66;65.44;98414.00;8415376;28;20230;-87
2022/10/13 04:20:08;;;;;;;0.00;0.00;;;;;;;13.69;64.72;98417.28;8415457;28;20222;-86
2022/10/13 04:24:12;;;;;;;0.10;0.10;;;;;;;13.61;65.18;98413.38;8415038;28;20223;-85
2022/10/13 04:28:15;;;;;;;0.00;0.00;;;;;;;13.64;65.11;98406.25;8414913;28;20231;-85
2022/10/13 04:32:20;;;;;;;0.00;0.00;;;;;;;13.66;65.35;98401.81;8414772;28;20290;-86
2022/10/13 04:36:24;;;;;;;0.00;0.00;;;;;;;13.63;65.33;98398.53;8414774;28;20226;-86
2022/10/13 04:40:27;;;;;;;0.00;0.00;;;;;;;13.58;65.46;98387.53;8414075;28;20289;-89
2022/10/13 04:44:30;;;;;;;0.10;0.10;;;;;;;13.08;67.60;98394.25;8414223;28;20424;-86
2022/10/13 04:48:35;;;;;;;0.00;0.00;;;;;;;13.20;66.93;98388.44;8414092;28;20230;-86
2022/10/13 04:52:38;;;;;;;0.00;0.00;;;;;;;13.39;66.00;98396.22;8414147;28;20239;-91
2022/10/13 04:56:40;;;;;;;0.00;0.00;;;;;;;13.11;67.02;98389.72;8414667;28;20237;-92
2022/10/13 05:00:46;;;;;;;0.10;0.10;;;;;;;13.34;66.47;98385.19;8413613;28;20243;-90
2022/10/13 05:04:50;;;;;;;0.00;0.00;;;;;;;13.28;66.42;98394.09;8414373;28;20540;-91
2022/10/13 05:08:53;;;;;;;0.00;0.00;;;;;;;13.42;66.24;98387.41;8414155;28;20298;-90
2022/10/13 05:12:57;;;;;;;0.00;0.00;;;;;;;13.14;66.77;98374.91;8413944;28;20245;-86
2022/10/13 05:16:59;;;;;;;0.00;0.00;;;;;;;13.40;65.87;98371.91;8413928;28;20230;-88
2022/10/13 05:21:12;;;;;;;0.00;0.00;;;;;;;13.55;65.17;98372.03;8414113;28;20429;-88
2022/10/13 05:25:15;;;;;;;0.00;0.00;;;;;;;13.62;65.23;98376.03;8413953;28;20222;-88
2022/10/13 05:29:18;;;;;;;0.00;0.00;;;;;;;13.62;65.14;98379.47;8414104;28;20237;-86
2022/10/13 05:33:20;;;;;;;0.07;0.07;;;;;;;13.51;65.71;98375.72;8413402;28;20226;-87
2022/10/13 05:37:25;;;;;;;0.00;0.00;;;;;;;13.67;65.20;98390.50;8413709;28;20226;-88
2022/10/13 05:41:28;;;;;;;0.10;0.10;;;;;;;13.75;64.82;98392.72;8413420;28;20422;-90
2022/10/13 05:45:32;;;;;;;0.10;0.10;;;;;;;13.66;65.54;98404.41;8413645;28;20238;-90
2022/10/13 05:49:38;;;;;;;0.00;0.00;;;;;;;13.76;64.78;98393.56;8413554;28;20233;-90
2022/10/13 05:53:46;;;;;;;0.00;0.00;;;;;;;13.86;64.84;98392.19;8414060;28;20235;-90
2022/10/13 05:57:52;;;;;;;0.00;0.00;;;;;;;13.64;65.82;98380.22;8414228;28;20245;-90
2022/10/13 06:01:56;;;;;;;0.10;0.10;;;;;;;13.80;64.95;98387.25;8413464;28;20226;-90
2022/10/13 06:05:59;;;;;;;0.00;0.00;;;;;;;13.63;65.44;98390.72;8413633;28;20352;-88
2022/10/13 06:10:03;;;;;;;0.00;0.00;;;;;;;13.78;65.51;98395.16;8413454;28;20230;-90
2022/10/13 06:14:06;;;;;;;0.00;0.00;;;;;;;13.83;65.17;98397.53;8418883;28;20243;-90
2022/10/13 06:18:10;;;;;;;0.10;0.10;;;;;;;13.97;64.70;98394.22;8420399;28;20227;-89
2022/10/13 06:22:13;;;;;;;0.00;0.00;;;;;;;13.92;64.85;98406.63;8420204;28;20230;-89
2022/10/13 06:26:17;;;;;;;0.00;0.00;;;;;;;14.01;64.79;98412.22;8419012;28;20230;-88
2022/10/13 06:30:20;;;;;;;0.10;0.10;;;;;;;13.97;64.96;98402.88;8419175;28;20229;-89
2022/10/13 06:34:23;;;;;;;0.10;0.10;;;;;;;13.94;64.73;98403.03;8418988;28;20233;-89
2022/10/13 06:38:26;;;;;;;0.10;0.10;;;;;;;13.95;64.96;98409.91;8418620;28;20230;-86
2022/10/13 06:42:32;;;;;;;0.10;0.10;;;;;;;14.04;64.83;98411.22;8419222;28;20241;-90
2022/10/13 06:46:36;;;;;;;0.00;0.00;;;;;;;14.03;65.27;98399.09;8418575;28;20238;-89
2022/10/13 06:50:39;;;;;;;0.00;0.00;;;;;;;13.97;65.51;98396.81;8418703;28;20234;-91
2022/10/13 06:54:44;;;;;;;0.00;0.00;;;;;;;14.01;65.34;98399.22;8418751;28;20231;-91
2022/10/13 06:58:49;;;;;;;0.10;0.10;;;;;;;14.13;65.29;98392.50;8418788;28;20226;-91
2022/10/13 07:02:52;;;;;;;0.10;0.10;;;;;;;13.79;66.95;98390.81;8418044;28;20235;-91
2022/10/13 07:06:55;;;;;;;0.00;0.00;;;;;;;14.10;65.64;98389.22;8418184;28;20234;-88
2022/10/13 07:10:57;;;;;;;0.10;0.10;;;;;;;14.17;65.65;98390.59;8417789;28;20231;-89
2022/10/13 07:15:02;;;;;;;0.00;0.00;;;;;;;14.16;65.21;98387.13;8417627;28;20261;-89
2022/10/13 07:19:05;;;;;;;0.00;0.00;;;;;;;14.17;65.50;98386.22;8417690;28;20227;-91
2022/10/13 07:23:07;;;;;;;0.00;0.00;;;;;;;14.26;65.45;98390.13;8416920;28;20242;-89
2022/10/13 07:27:10;;;;;;;0.00;0.00;;;;;;;14.34;65.01;98385.34;8417543;28;20241;-89
2022/10/13 07:31:16;;;;;;;0.00;0.00;;;;;;;14.37;65.10;98394.75;8417134;28;20257;-81
2022/10/13 07:35:20;;;;;;;0.00;0.00;;;;;;;14.28;65.35;98401.31;8417366;28;20233;-90
2022/10/13 07:39:25;;;;;;;0.10;0.10;;;;;;;14.31;65.42;98387.25;8416588;28;20514;-81
2022/10/13 07:43:29;;;;;;;0.00;0.00;;;;;;;14.36;65.58;98393.06;8416820;28;20438;-89
2022/10/13 07:47:33;;;;;;;0.00;0.00;;;;;;;14.46;65.20;98395.09;8416735;28;20238;-89
2022/10/13 07:51:36;;;;;;;0.00;0.00;;;;;;;14.44;65.56;98380.47;8416669;28;20514;-89
2022/10/13 07:55:39;;;;;;;0.00;0.00;;;;;;;14.38;65.65;98386.03;8416235;28;20242;-86
2022/10/13 07:59:42;;;;;;;0.00;0.00;;;;;;;14.75;69.46;98386.66;8415904;28;20233;-81
2022/10/13 08:03:46;;;;;;;0.00;0.00;;;;;;;15.28;66.05;98389.81;8416395;28;20233;-82
2022/10/13 08:07:52;;;;;;;0.00;0.00;;;;;;;15.54;66.61;98393.56;8416054;28;20231;-82
2022/10/13 08:12:00;;;;;;;0.00;0.00;;;;;;;15.67;64.19;98386.69;8415831;28;20230;-81
2022/10/13 08:16:04;;;;;;;0.00;0.00;;;;;;;15.62;64.96;98384.34;8416393;28;20227;-81
2022/10/13 08:20:09;;;;;;;0.00;0.00;;;;;;;15.99;64.13;98387.44;8415772;28;20222;-81
2022/10/13 08:24:14;;;;;;;0.00;0.00;;;;;;;16.20;62.50;98389.66;8416368;28;20425;-81
2022/10/13 08:28:19;;;;;;;0.00;0.00;;;;;;;15.64;62.46;98389.47;8415681;28;20234;-82
2022/10/13 08:32:22;;;;;;;0.00;0.00;;;;;;;15.42;63.37;98401.16;8415595;28;20226;-87
2022/10/13 08:36:26;;;;;;;0.00;0.00;;;;;;;15.20;64.52;98401.53;8414614;28;20242;-87
2022/10/13 08:40:29;;;;;;;0.00;0.00;;;;;;;15.29;64.33;98383.66;8415033;28;20235;-86
2022/10/13 08:44:35;;;;;;;0.00;0.00;;;;;;;15.21;64.87;98371.91;8415393;28;20234;-86
2022/10/13 08:49:01;;;;;;;0.00;0.00;;;;;;;15.20;64.86;98385.03;8418349;28;20234;-84
2022/10/13 08:53:10;;;;;;;0.00;0.00;;;;;;;15.27;64.97;98383.78;8417456;28;20253;-86
2022/10/13 08:57:12;;;;;;;0.00;0.00;;;;;;;15.18;65.48;98387.72;8416249;28;20227;-86
2022/10/13 09:01:18;;;;;;;0.00;0.00;;;;;;;15.18;65.25;98381.69;8414981;28;20223;-86
2022/10/13 09:05:29;;;;;;;0.00;0.00;;;;;;;15.16;65.51;98371.31;8415311;28;20237;-86
2022/10/13 09:09:33;;;;;;;0.00;0.00;;;;;;;15.06;66.67;98370.19;8414518;28;20234;-85
2022/10/13 09:13:36;;;;;;;0.00;0.00;;;;;;;15.25;65.89;98360.38;8415323;28;20243;-80
2022/10/13 09:17:41;;;;;;;0.00;0.00;;;;;;;15.14;66.64;98369.75;8415219;28;20238;-85
2022/10/13 09:21:44;;;;;;;0.00;0.00;;;;;;;15.39;65.53;98364.78;8415971;28;20244;-85
2022/10/13 09:25:49;;;;;;;0.00;0.00;;;;;;;15.46;65.70;98360.06;8413642;28;20226;-86
2022/10/13 09:29:52;;;;;;;0.00;0.00;;;;;;;15.53;65.58;98365.75;8413956;28;20226;-86
2022/10/13 09:34:00;;;;;;;0.00;0.00;;;;;;;15.62;65.80;98349.56;8413965;28;20233;-86
2022/10/13 09:38:04;;;;;;;0.00;0.00;;;;;;;15.52;66.86;98358.88;8414069;28;20227;-85
2022/10/13 09:42:23;;;;;;;0.00;0.00;;;;;;;15.65;65.39;98362.44;8414365;28;20233;-82
2022/10/13 09:46:28;;;;;;;0.00;0.00;;;;;;;15.79;64.98;98361.66;8414954;28;20233;-85
2022/10/13 09:50:33;;;;;;;0.00;0.00;;;;;;;15.79;64.92;98362.50;8422212;28;20297;-87
2022/10/13 09:54:42;;;;;;;0.00;0.00;;;;;;;15.56;65.64;98370.81;8421190;28;20242;-84
2022/10/13 09:58:50;;;;;;;0.00;0.00;;;;;;;15.72;65.36;98368.13;8421534;28;20567;-84
2022/10/13 10:02:56;;;;;;;0.00;0.00;;;;;;;15.69;65.55;98370.91;8420747;28;20222;-84
2022/10/13 10:06:58;;;;;;;0.00;0.00;;;;;;;15.74;65.47;98363.69;8422469;28;20234;-85
2022/10/13 10:11:03;;;;;;;0.00;0.00;;;;;;;15.67;66.08;98364.94;8421290;28;20235;-86
2022/10/13 10:15:17;;;;;;;0.00;0.00;;;;;;;15.91;65.52;98363.53;8420802;28;20445;-87
2022/10/13 10:19:23;;;;;;;0.00;0.00;;;;;;;15.79;66.15;98357.28;8420664;28;20424;-85
2022/10/13 10:23:33;;;;;;;0.00;0.00;;;;;;;15.87;65.73;98350.75;8418991;28;20227;-74
2022/10/13 10:27:40;;;;;;;0.00;0.00;;;;;;;15.92;65.58;98351.31;8418586;28;20309;-78
2022/10/13 10:31:54;;;;;;;0.00;0.00;;;;;;;16.00;65.17;98349.91;8418569;28;20530;-79
2022/10/13 10:36:02;;;;;;;0.00;0.00;;;;;;;16.09;65.40;98345.91;8418348;28;20231;-80
2022/10/13 10:40:12;;;;;;;0.00;0.00;;;;;;;16.08;64.98;98339.00;8417550;28;20223;-77
2022/10/13 10:44:17;;;;;;;0.00;0.00;;;;;;;16.14;64.73;98340.41;8417304;28;20231;-80
2022/10/13 10:48:24;;;;;;;0.00;0.00;;;;;;;16.16;65.09;98333.31;8417409;28;20229;-78
2022/10/13 10:52:31;;;;;;;0.00;0.00;;;;;;;15.87;66.37;98325.47;8416765;28;20542;-79
2022/10/13 10:56:37;;;;;;;0.00;0.00;;;;;;;15.92;66.19;98310.38;8417161;28;20389;-78
2022/10/13 11:00:47;;;;;;;0.00;0.00;;;;;;;16.20;65.14;98296.47;8415956;28;20231;-78
2022/10/13 11:04:53;;;;;;;0.00;0.00;;;;;;;16.41;64.96;98299.50;8417072;28;20227;-78
2022/10/13 11:08:57;;;;;;;0.00;0.00;;;;;;;16.25;65.45;98311.00;8416755;28;20230;-78
2022/10/13 11:13:21;;;;;;;0.00;0.00;;;;;;;16.30;64.66;98309.78;8416345;28;20241;-78
2022/10/13 11:17:28;;;;;;;0.00;0.00;;;;;;;16.33;65.09;98303.53;8416316;28;20226;-78
2022/10/13 11:22:10;;;;;;;0.00;0.00;;;;;;;16.48;64.53;98304.34;8415662;28;20223;-78
2022/10/13 11:26:44;;;;;;;0.00;0.00;;;;;;;16.47;64.77;98303.50;8414089;28;20227;-78
2022/10/13 11:30:49;;;;;;;0.00;0.00;;;;;;;16.56;64.49;98299.47;8415250;28;20318;-78
2022/10/13 11:34:57;;;;;;;0.00;0.00;;;;;;;16.66;64.09;98295.34;8416094;28;20238;-78
2022/10/13 11:39:09;;;;;;;0.00;0.00;;;;;;;16.41;64.03;98289.06;8415769;28;20230;-78
2022/10/13 11:43:36;;;;;;;0.00;0.00;;;;;;;16.10;65.24;98284.88;8415793;28;20503;-78
2022/10/13 11:48:05;;;;;;;0.00;0.00;;;;;;;16.46;63.88;98286.13;8415270;28;20291;-76
2022/10/13 11:52:22;;;;;;;0.00;0.00;;;;;;;16.36;64.42;98279.81;8415860;28;20234;-76
2022/10/13 11:56:34;;;;;;;0.00;0.00;;;;;;;16.52;63.70;98271.84;8414978;28;20245;-75
2022/10/13 12:00:51;;;;;;;0.00;0.00;;;;;;;16.50;63.66;98266.69;8414929;28;20341;-77
2022/10/13 12:05:22;;;;;;;0.00;0.00;;;;;;;16.50;63.89;98258.03;8415426;28;20341;-78
2022/10/13 12:09:26;;;;;;;0.00;0.00;;;;;;;16.66;63.64;98250.03;8414522;28;20245;-73
2022/10/13 12:13:31;;;;;;;0.00;0.00;;;;;;;16.67;63.80;98249.09;8414209;28;20530;-78
2022/10/13 12:17:37;;;;;;;0.00;0.00;;;;;;;16.78;63.40;98237.00;8414932;28;20234;-77
2022/10/13 12:21:49;;;;;;;0.00;0.00;;;;;;;16.81;63.14;98231.59;8414784;28;20226;-79
2022/10/13 12:25:56;;;;;;;0.00;0.00;;;;;;;16.58;63.96;98230.47;8414169;28;20233;-78
2022/10/13 12:29:59;;;;;;;0.00;0.00;;;;;;;16.71;63.54;98227.03;8414045;28;20235;-78
2022/10/13 12:34:04;;;;;;;0.00;0.00;;;;;;;16.54;64.42;98239.41;8403371;28;20234;-79
2022/10/13 12:38:16;;;;;;;0.00;0.00;;;;;;;16.72;63.25;98229.56;8413137;28;20227;-78
2022/10/13 12:42:19;;;;;;;0.00;0.00;;;;;;;16.83;63.11;98236.75;8413387;28;20223;-77
2022/10/13 12:46:38;;;;;;;0.10;0.10;;;;;;;16.91;61.17;98229.22;8413433;28;20234;-78
2022/10/13 12:50:43;;;;;;;0.00;0.00;;;;;;;16.95;60.74;98217.63;8413289;28;20265;-78
2022/10/13 12:54:51;;;;;;;0.00;0.00;;;;;;;16.91;60.84;98218.75;8413309;28;20222;-79
2022/10/13 12:58:54;;;;;;;0.00;0.00;;;;;;;16.94;60.68;98213.31;8413227;28;20230;-78
2022/10/13 13:02:58;;;;;;;0.00;0.00;;;;;;;16.93;60.82;98197.75;8413041;28;20230;-78
2022/10/13 13:07:05;;;;;;;0.00;0.00;;;;;;;16.96;60.93;98194.91;8409540;28;20230;-81
2022/10/13 13:11:22;;;;;;;0.00;0.00;;;;;;;16.92;60.88;98190.81;8414078;28;20235;-80
2022/10/13 13:15:38;;;;;;;0.00;0.00;;;;;;;16.98;60.42;98183.41;8411679;28;20249;-78
2022/10/13 13:19:44;;;;;;;0.00;0.00;;;;;;;17.00;59.97;98189.38;8409594;28;20227;-79
2022/10/13 13:23:49;;;;;;;0.00;0.00;;;;;;;16.96;59.75;98194.91;8413024;28;20284;-80
2022/10/13 13:27:55;;;;;;;0.00;0.00;;;;;;;16.99;59.89;98192.09;8409499;28;20297;-86
2022/10/13 13:31:58;;;;;;;0.00;0.00;;;;;;;16.75;60.38;98195.38;8413008;28;20230;-80
2022/10/13 13:36:01;;;;;;;0.00;0.00;;;;;;;16.89;60.58;98202.34;8412557;28;20230;-79
2022/10/13 13:40:14;;;;;;;0.00;0.00;;;;;;;17.07;60.64;98188.97;8414537;28;20235;-80
2022/10/13 13:44:17;;;;;;;0.00;0.00;;;;;;;16.96;60.78;98194.91;8414195;28;20526;-80
2022/10/13 13:48:34;;;;;;;0.00;0.00;;;;;;;16.80;59.67;98190.66;8412243;28;20293;-80
2022/10/13 13:52:37;;;;;;;0.00;0.00;;;;;;;16.84;60.33;98173.03;8413540;28;20235;-81
2022/10/13 13:56:45;;;;;;;0.00;0.00;;;;;;;16.90;60.18;98180.44;8411512;28;20546;-81
2022/10/13 14:00:48;;;;;;;0.00;0.00;;;;;;;16.90;60.31;98177.84;8411272;28;20300;-78
2022/10/13 14:04:52;;;;;;;0.00;0.00;;;;;;;16.77;60.70;98183.03;8413334;28;20265;-76
2022/10/13 14:08:55;;;;;;;0.00;0.00;;;;;;;16.74;60.75;98179.78;8412448;28;20322;-83
2022/10/13 14:12:59;;;;;;;0.00;0.00;;;;;;;16.81;62.41;98167.94;8412969;28;20234;-80
2022/10/13 14:17:03;;;;;;;0.00;0.00;;;;;;;16.70;61.05;98171.31;8412534;28;20265;-80
2022/10/13 14:21:07;;;;;;;0.00;0.00;;;;;;;16.90;60.50;98156.91;8406064;28;20227;-81
2022/10/13 14:25:11;;;;;;;0.00;0.00;;;;;;;16.57;61.39;98162.59;8413194;28;20272;-80
2022/10/13 14:29:15;;;;;;;0.00;0.00;;;;;;;16.65;60.72;98167.31;8412752;28;20227;-78
2022/10/13 14:33:18;;;;;;;0.00;0.00;;;;;;;16.73;61.09;98159.78;8414003;28;20526;-79
2022/10/13 14:37:21;;;;;;;0.00;0.00;;;;;;;16.70;60.94;98167.84;8418531;28;20227;-80
2022/10/13 14:41:26;;;;;;;0.00;0.00;;;;;;;16.65;61.27;98173.38;8417697;28;20423;-78
2022/10/13 14:45:31;;;;;;;0.00;0.00;;;;;;;16.76;60.73;98157.81;8417515;28;20292;-79
2022/10/13 14:49:33;;;;;;;0.00;0.00;;;;;;;16.78;61.30;98157.72;8417815;28;20242;-79
2022/10/13 14:53:37;;;;;;;0.00;0.00;;;;;;;16.78;61.31;98150.69;8417698;28;20227;-78
2022/10/13 14:57:40;;;;;;;0.00;0.00;;;;;;;16.69;61.30;98151.31;8417431;28;20466;-79
2022/10/13 15:01:44;;;;;;;0.00;0.00;;;;;;;16.40;62.44;98153.22;8416904;28;20230;-79
2022/10/13 15:05:47;;;;;;;0.00;0.00;;;;;;;16.71;61.89;98146.81;8416729;28;20522;-79
2022/10/13 15:09:50;;;;;;;0.00;0.00;;;;;;;16.46;62.20;98154.59;8416660;28;20293;-79
2022/10/13 15:14:08;;;;;;;0.00;0.00;;;;;;;16.49;62.04;98154.41;8416315;28;20294;-79
2022/10/13 15:18:12;;;;;;;0.00;0.00;;;;;;;16.58;62.23;98165.09;8417291;28;20400;-81
2022/10/13 15:22:15;;;;;;;0.00;0.00;;;;;;;16.54;62.26;98155.75;8417578;28;20292;-80
2022/10/13 15:26:19;;;;;;;0.00;0.00;;;;;;;16.45;62.75;98155.53;8416915;28;20226;-80
2022/10/13 15:30:21;;;;;;;0.00;0.00;;;;;;;16.49;62.69;98157.88;8417054;28;20246;-80
2022/10/13 15:34:26;;;;;;;0.00;0.00;;;;;;;16.45;62.65;98153.78;8416743;28;20234;-81
2022/10/13 15:38:29;;;;;;;0.00;0.00;;;;;;;16.41;63.15;98152.28;8415873;28;20234;-81
2022/10/13 15:42:31;;;;;;;0.00;0.00;;;;;;;16.57;62.63;98133.84;8416289;28;20234;-79
2022/10/13 15:46:34;;;;;;;0.00;0.00;;;;;;;16.48;62.94;98143.09;8415209;28;20241;-80
2022/10/13 15:50:40;;;;;;;0.00;0.00;;;;;;;16.26;64.16;98138.47;8415566;28;20306;-80
2022/10/13 15:54:43;;;;;;;0.00;0.00;;;;;;;16.38;63.29;98135.03;8415807;28;20437;-81
2022/10/13 15:58:45;;;;;;;0.00;0.00;;;;;;;16.18;64.69;98138.09;8416496;28;20231;-78
2022/10/13 16:02:49;;;;;;;0.00;0.00;;;;;;;16.31;63.98;98138.16;8415764;28;20280;-76
2022/10/13 16:06:54;;;;;;;0.00;0.00;;;;;;;16.12;64.85;98128.03;8416490;28;20387;-78
2022/10/13 16:10:57;;;;;;;0.00;0.00;;;;;;;16.37;64.17;98127.28;8416477;28;20256;-80
2022/10/13 16:15:01;;;;;;;0.00;0.00;;;;;;;16.26;64.46;98128.00;8414888;28;20242;-82
2022/10/13 16:19:04;;;;;;;0.10;0.00;;;;;;;16.21;65.76;98124.84;8414750;28;20226;-83
2022/10/13 16:23:08;;;;;;;0.00;0.00;;;;;;;16.35;65.18;98119.53;8414048;28;20260;-81
2022/10/13 16:27:11;;;;;;;0.00;0.00;;;;;;;16.19;65.73;98127.56;8414019;28;20479;-80
2022/10/13 16:31:16;;;;;;;0.00;0.00;;;;;;;16.35;66.88;98123.94;8414221;28;20222;-82
2022/10/13 16:35:18;;;;;;;0.00;0.00;;;;;;;16.33;65.21;98124.03;8414500;28;20242;-81
2022/10/13 16:39:23;;;;;;;0.00;0.00;;;;;;;16.19;65.89;98134.56;8413993;28;20226;-83
2022/10/13 16:43:26;;;;;;;0.00;0.00;;;;;;;16.42;66.06;98138.28;8413405;28;20222;-78
2022/10/13 16:47:29;;;;;;;0.00;0.00;;;;;;;16.33;65.33;98142.31;8413388;28;20256;-79
2022/10/13 16:51:31;;;;;;;0.00;0.00;;;;;;;16.11;66.43;98142.88;8414380;28;20237;-82
2022/10/13 16:55:39;;;;;;;0.00;0.00;;;;;;;16.21;66.46;98138.75;8414495;28;20238;-81
2022/10/13 16:59:42;;;;;;;0.00;0.00;;;;;;;16.13;66.33;98132.34;8413508;28;20518;-81
2022/10/13 17:03:45;;;;;;;0.00;0.00;;;;;;;16.23;66.68;98139.47;8413180;28;20226;-79
2022/10/13 17:07:48;;;;;;;0.00;0.00;;;;;;;16.25;65.58;98136.75;8412863;28;20234;-80
2022/10/13 17:11:52;;;;;;;0.00;0.00;;;;;;;15.94;67.22;98123.06;8413101;28;20522;-80
2022/10/13 17:15:56;;;;;;;0.00;0.00;;;;;;;16.03;67.29;98112.03;8346967;28;20392;-83
2022/10/13 17:19:59;;;;;;;0.00;0.00;;;;;;;15.94;67.14;98110.00;8347097;28;20224;-79
2022/10/13 17:24:02;;;;;;;0.00;0.00;;;;;;;16.21;65.82;98125.66;8347023;28;20308;-75
2022/10/13 17:28:06;;;;;;;0.00;0.00;;;;;;;16.21;65.71;98136.13;8348350;28;20227;-79
2022/10/13 17:32:09;;;;;;;0.00;0.00;;;;;;;16.30;65.38;98136.50;8346730;28;20293;-75
2022/10/13 17:36:14;;;;;;;0.00;0.00;;;;;;;16.23;65.86;98131.63;8346074;28;20228;-79
2022/10/13 17:40:17;;;;;;;0.00;0.00;;;;;;;16.26;65.75;98128.00;8346578;28;20281;-80
2022/10/13 17:44:21;;;;;;;0.00;0.00;;;;;;;16.22;65.86;98121.28;8346230;28;20516;-78
2022/10/13 17:48:24;;;;;;;0.00;0.00;;;;;;;16.11;66.34;98114.16;8346474;28;20220;-77
2022/10/13 17:52:26;;;;;;;0.00;0.00;;;;;;;15.75;67.34;98106.91;8345838;28;20353;-77
2022/10/13 17:56:29;;;;;;;0.00;0.00;;;;;;;16.00;66.47;98116.63;8346204;28;20239;-77
2022/10/13 18:00:33;;;;;;;0.00;0.00;;;;;;;16.10;66.10;98109.84;8345987;28;20535;-77
2022/10/13 18:04:56;;;;;;;0.00;0.00;;;;;;;16.16;66.02;98114.72;8345652;28;20334;-77
2022/10/13 18:08:59;;;;;;;0.00;0.00;;;;;;;16.45;68.40;98111.97;8349202;28;20240;-75
2022/10/13 18:13:02;;;;;;;0.00;0.00;;;;;;;16.37;67.02;98111.59;8371381;28;20235;-78
2022/10/13 18:17:06;;;;;;;0.00;0.00;;;;;;;16.22;67.04;98113.44;8418737;28;20230;-78
2022/10/13 18:21:10;;;;;;;0.00;0.00;;;;;;;16.81;66.21;98113.03;8418160;28;20223;-78
2022/10/13 18:25:13;;;;;;;0.00;0.00;;;;;;;16.57;64.86;98116.34;8418257;28;20229;-77
2022/10/13 18:29:16;;;;;;;0.00;0.00;;;;;;;16.48;65.26;98124.81;8418437;28;20234;-78
2022/10/13 18:33:20;;;;;;;0.00;0.00;;;;;;;16.26;65.60;98122.78;8418298;28;20227;-78
2022/10/13 18:37:23;;;;;;;0.00;0.00;;;;;;;16.34;65.38;98119.66;8418034;28;20233;-78
2022/10/13 18:41:26;;;;;;;0.00;0.00;;;;;;;16.27;65.69;98126.22;8417354;28;20223;-77
2022/10/13 18:45:29;;;;;;;0.00;0.00;;;;;;;16.25;65.34;98121.09;8417453;28;20230;-77
2022/10/13 18:49:33;;;;;;;0.00;0.00;;;;;;;16.26;65.23;98117.56;8417439;28;20238;-78
2022/10/13 18:53:37;;;;;;;0.00;0.00;;;;;;;16.16;65.82;98106.00;8417533;28;20430;-80
2022/10/13 18:57:42;;;;;;;0.00;0.00;;;;;;;16.20;65.20;98105.72;8417080;28;20455;-80
2022/10/13 19:01:46;;;;;;;0.00;0.00;;;;;;;16.16;65.55;98106.88;8417265;28;20349;-80
2022/10/13 19:05:51;;;;;;;0.00;0.00;;;;;;;16.13;65.87;98107.06;8417406;28;20231;-79
2022/10/13 19:09:54;;;;;;;0.00;0.00;;;;;;;16.13;65.90;98104.44;8417030;28;20277;-79
2022/10/13 19:13:58;;;;;;;0.00;0.00;;;;;;;16.15;65.81;98094.72;8417013;28;20230;-79
2022/10/13 19:18:01;;;;;;;0.00;0.00;;;;;;;16.13;65.58;98090.56;8416931;28;20238;-80